sensor_id;sensor_type;location;lat;lon;timestamp;temperature;humidity
37268;DHT22;23154;52.542;13.362;2022-09-12T00:02:19;13.50;99.90
37268;DHT22;23154;52.542;13.362;2022-09-12T00:04:45;13.50;99.90
37268;DHT22;23154;52.542;13.362;2022-09-12T00:07:10;13.30;99.90
37268;DHT22;23154;52.542;13.362;2022-09-12T00:09:36;13.20;99.90
37268;DHT22;23154;52.542;13.362;2022-09-12T00:12:02;13.00;99.90
37268;DHT22;23154;52.542;13.362;2022-09-12T00:14:28;13.10;99.90
37268;DHT22;23154;52.542;13.362;2022-09-12T00:16:57;13.10;99.90
37268;DHT22;23154;52.542;13.362;2022-09-12T00:19:24;13.10;99.90
37268;DHT22;23154;52.542;13.362;2022-09-12T00:21:50;13.20;99.90
37268;DHT22;23154;52.542;13.362;2022-09-12T00:24:15;13.10;99.90
37268;DHT22;23154;52.542;13.362;2022-09-12T00:26:41;13.10;99.90
37268;DHT22;23154;52.542;13.362;2022-09-12T00:29:06;12.90;99.90
37268;DHT22;23154;52.542;13.362;2022-09-12T00:31:32;12.90;99.90
37268;DHT22;23154;52.542;13.362;2022-09-12T00:33:59;12.90;99.90
37268;DHT22;23154;52.542;13.362;2022-09-12T00:36:26;12.80;99.90
37268;DHT22;23154;52.542;13.362;2022-09-12T00:38:52;12.70;99.90
37268;DHT22;23154;52.542;13.362;2022-09-12T00:41:21;12.80;99.90
37268;DHT22;23154;52.542;13.362;2022-09-12T00:43:50;12.80;99.90
37268;DHT22;23154;52.542;13.362;2022-09-12T00:49:17;12.70;99.90
37268;DHT22;23154;52.542;13.362;2022-09-12T00:54:35;12.70;99.90
37268;DHT22;23154;52.542;13.362;2022-09-12T00:57:05;12.60;99.90
37268;DHT22;23154;52.542;13.362;2022-09-12T00:59:37;12.60;99.90
37268;DHT22;23154;52.542;13.362;2022-09-12T01:02:05;12.50;99.90
37268;DHT22;23154;52.542;13.362;2022-09-12T01:04:31;12.50;99.90
37268;DHT22;23154;52.542;13.362;2022-09-12T01:06:59;12.50;99.90
37268;DHT22;23154;52.542;13.362;2022-09-12T01:09:24;12.40;99.90
37268;DHT22;23154;52.542;13.362;2022-09-12T01:11:51;12.30;99.90
37268;DHT22;23154;52.542;13.362;2022-09-12T01:14:18;12.40;99.90
37268;DHT22;23154;52.542;13.362;2022-09-12T01:16:45;12.30;99.90
37268;DHT22;23154;52.542;13.362;2022-09-12T01:25:02;12.30;99.90
37268;DHT22;23154;52.542;13.362;2022-09-12T01:36:10;12.30;99.90
37268;DHT22;23154;52.542;13.362;2022-09-12T01:41:18;12.20;99.90
37268;DHT22;23154;52.542;13.362;2022-09-12T01:46:45;12.20;99.90
37268;DHT22;23154;52.542;13.362;2022-09-12T01:54:24;12.10;99.90
37268;DHT22;23154;52.542;13.362;2022-09-12T01:56:52;12.10;99.90
37268;DHT22;23154;52.542;13.362;2022-09-12T01:59:28;12.20;99.90
37268;DHT22;23154;52.542;13.362;2022-09-12T02:02:05;12.10;99.90
37268;DHT22;23154;52.542;13.362;2022-09-12T02:04:43;12.00;99.90
37268;DHT22;23154;52.542;13.362;2022-09-12T02:07:40;12.10;99.90
37268;DHT22;23154;52.542;13.362;2022-09-12T02:10:15;11.90;99.90
37268;DHT22;23154;52.542;13.362;2022-09-12T02:12:47;12.00;99.90
37268;DHT22;23154;52.542;13.362;2022-09-12T02:15:16;12.00;99.90
37268;DHT22;23154;52.542;13.362;2022-09-12T02:17:44;12.00;99.90
37268;DHT22;23154;52.542;13.362;2022-09-12T02:20:19;11.90;99.90
37268;DHT22;23154;52.542;13.362;2022-09-12T02:22:45;11.80;99.90
37268;DHT22;23154;52.542;13.362;2022-09-12T02:25:15;11.80;99.90
37268;DHT22;23154;52.542;13.362;2022-09-12T02:27:47;11.80;99.90
37268;DHT22;23154;52.542;13.362;2022-09-12T02:30:14;11.90;99.90
37268;DHT22;23154;52.542;13.362;2022-09-12T02:32:57;11.90;99.90
37268;DHT22;23154;52.542;13.362;2022-09-12T02:38:09;11.80;99.90
37268;DHT22;23154;52.542;13.362;2022-09-12T02:40:36;11.80;99.90
37268;DHT22;23154;52.542;13.362;2022-09-12T02:43:04;11.80;99.90
37268;DHT22;23154;52.542;13.362;2022-09-12T02:45:31;11.70;99.90
37268;DHT22;23154;52.542;13.362;2022-09-12T02:48:03;11.80;99.90
37268;DHT22;23154;52.542;13.362;2022-09-12T02:50:31;11.70;99.90
37268;DHT22;23154;52.542;13.362;2022-09-12T02:52:57;11.70;99.90
37268;DHT22;23154;52.542;13.362;2022-09-12T02:55:30;11.80;99.90
37268;DHT22;23154;52.542;13.362;2022-09-12T02:57:56;11.70;99.90
37268;DHT22;23154;52.542;13.362;2022-09-12T03:00:22;11.70;99.90
37268;DHT22;23154;52.542;13.362;2022-09-12T03:03:25;11.80;99.90
37268;DHT22;23154;52.542;13.362;2022-09-12T03:06:01;11.80;99.90
37268;DHT22;23154;52.542;13.362;2022-09-12T03:09:19;11.70;99.90
37268;DHT22;23154;52.542;13.362;2022-09-12T03:11:48;11.70;99.90
37268;DHT22;23154;52.542;13.362;2022-09-12T03:22:24;11.60;99.90
37268;DHT22;23154;52.542;13.362;2022-09-12T03:25:13;11.80;99.90
37268;DHT22;23154;52.542;13.362;2022-09-12T03:27:59;11.60;99.90
37268;DHT22;23154;52.542;13.362;2022-09-12T03:30:30;11.70;99.90
37268;DHT22;23154;52.542;13.362;2022-09-12T03:32:56;11.50;99.90
37268;DHT22;23154;52.542;13.362;2022-09-12T03:35:23;11.60;99.90
37268;DHT22;23154;52.542;13.362;2022-09-12T03:37:50;11.60;99.90
37268;DHT22;23154;52.542;13.362;2022-09-12T03:40:16;11.60;99.90
37268;DHT22;23154;52.542;13.362;2022-09-12T03:42:42;11.50;99.90
37268;DHT22;23154;52.542;13.362;2022-09-12T03:45:08;11.50;99.90
37268;DHT22;23154;52.542;13.362;2022-09-12T03:47:34;11.60;99.90
37268;DHT22;23154;52.542;13.362;2022-09-12T03:50:01;11.50;99.90
37268;DHT22;23154;52.542;13.362;2022-09-12T03:52:27;11.40;99.90
37268;DHT22;23154;52.542;13.362;2022-09-12T03:54:52;11.60;99.90
37268;DHT22;23154;52.542;13.362;2022-09-12T03:57:18;11.50;99.90
37268;DHT22;23154;52.542;13.362;2022-09-12T03:59:44;11.40;99.90
37268;DHT22;23154;52.542;13.362;2022-09-12T04:02:09;11.40;99.90
37268;DHT22;23154;52.542;13.362;2022-09-12T04:04:39;11.40;99.90
37268;DHT22;23154;52.542;13.362;2022-09-12T04:07:05;11.50;99.90
37268;DHT22;23154;52.542;13.362;2022-09-12T04:09:30;11.40;99.90
37268;DHT22;23154;52.542;13.362;2022-09-12T04:11:56;11.40;99.90
37268;DHT22;23154;52.542;13.362;2022-09-12T04:14:21;11.40;99.90
37268;DHT22;23154;52.542;13.362;2022-09-12T04:16:47;11.40;99.90
37268;DHT22;23154;52.542;13.362;2022-09-12T04:19:12;11.30;99.90
37268;DHT22;23154;52.542;13.362;2022-09-12T04:21:38;11.30;99.90
37268;DHT22;23154;52.542;13.362;2022-09-12T04:24:04;11.30;99.90
37268;DHT22;23154;52.542;13.362;2022-09-12T04:26:30;11.30;99.90
37268;DHT22;23154;52.542;13.362;2022-09-12T04:28:56;11.40;99.90
37268;DHT22;23154;52.542;13.362;2022-09-12T04:31:23;11.60;99.90
37268;DHT22;23154;52.542;13.362;2022-09-12T04:33:57;11.40;99.90
37268;DHT22;23154;52.542;13.362;2022-09-12T04:36:24;11.30;99.90
37268;DHT22;23154;52.542;13.362;2022-09-12T04:38:50;11.40;99.90
37268;DHT22;23154;52.542;13.362;2022-09-12T04:41:21;11.30;99.90
37268;DHT22;23154;52.542;13.362;2022-09-12T04:43:51;11.40;99.90
37268;DHT22;23154;52.542;13.362;2022-09-12T04:46:17;11.30;99.90
37268;DHT22;23154;52.542;13.362;2022-09-12T04:48:46;11.40;99.90
37268;DHT22;23154;52.542;13.362;2022-09-12T04:51:14;11.50;99.90
37268;DHT22;23154;52.542;13.362;2022-09-12T04:53:41;11.50;99.90
37268;DHT22;23154;52.542;13.362;2022-09-12T04:56:09;11.60;99.90
37268;DHT22;23154;52.542;13.362;2022-09-12T04:58:35;11.50;99.90
37268;DHT22;23154;52.542;13.362;2022-09-12T05:01:05;11.50;99.90
37268;DHT22;23154;52.542;13.362;2022-09-12T05:03:31;11.60;99.90
37268;DHT22;23154;52.542;13.362;2022-09-12T05:05:57;11.50;99.90
37268;DHT22;23154;52.542;13.362;2022-09-12T05:08:23;11.60;99.90
37268;DHT22;23154;52.542;13.362;2022-09-12T05:10:48;11.60;99.90
37268;DHT22;23154;52.542;13.362;2022-09-12T05:13:14;11.60;99.90
37268;DHT22;23154;52.542;13.362;2022-09-12T05:15:39;11.60;99.90
37268;DHT22;23154;52.542;13.362;2022-09-12T05:18:05;11.70;99.90
37268;DHT22;23154;52.542;13.362;2022-09-12T05:20:32;11.70;99.90
37268;DHT22;23154;52.542;13.362;2022-09-12T05:22:58;11.70;99.90
37268;DHT22;23154;52.542;13.362;2022-09-12T05:25:24;11.80;99.90
37268;DHT22;23154;52.542;13.362;2022-09-12T05:27:51;11.80;99.90
37268;DHT22;23154;52.542;13.362;2022-09-12T05:30:17;11.80;99.90
37268;DHT22;23154;52.542;13.362;2022-09-12T05:32:43;11.80;99.90
37268;DHT22;23154;52.542;13.362;2022-09-12T05:35:08;12.00;99.90
37268;DHT22;23154;52.542;13.362;2022-09-12T05:37:34;12.00;99.90
37268;DHT22;23154;52.542;13.362;2022-09-12T05:39:59;12.00;99.90
37268;DHT22;23154;52.542;13.362;2022-09-12T05:42:29;12.00;99.90
37268;DHT22;23154;52.542;13.362;2022-09-12T05:44:54;12.10;99.90
37268;DHT22;23154;52.542;13.362;2022-09-12T05:47:20;12.20;99.90
37268;DHT22;23154;52.542;13.362;2022-09-12T05:49:46;12.30;99.90
37268;DHT22;23154;52.542;13.362;2022-09-12T05:52:13;12.40;99.90
37268;DHT22;23154;52.542;13.362;2022-09-12T05:54:38;12.30;99.90
37268;DHT22;23154;52.542;13.362;2022-09-12T05:57:05;12.40;99.90
37268;DHT22;23154;52.542;13.362;2022-09-12T05:59:31;12.50;99.90
37268;DHT22;23154;52.542;13.362;2022-09-12T06:01:57;12.60;99.90
37268;DHT22;23154;52.542;13.362;2022-09-12T06:04:23;12.60;99.90
37268;DHT22;23154;52.542;13.362;2022-09-12T06:06:49;12.60;99.90
37268;DHT22;23154;52.542;13.362;2022-09-12T06:09:15;12.60;99.90
37268;DHT22;23154;52.542;13.362;2022-09-12T06:11:42;12.60;99.90
37268;DHT22;23154;52.542;13.362;2022-09-12T06:14:09;12.80;99.90
37268;DHT22;23154;52.542;13.362;2022-09-12T06:16:36;12.90;99.90
37268;DHT22;23154;52.542;13.362;2022-09-12T06:19:21;13.00;99.90
37268;DHT22;23154;52.542;13.362;2022-09-12T06:21:52;13.00;99.90
37268;DHT22;23154;52.542;13.362;2022-09-12T06:24:19;13.10;99.90
37268;DHT22;23154;52.542;13.362;2022-09-12T06:26:48;13.10;99.90
37268;DHT22;23154;52.542;13.362;2022-09-12T06:29:16;13.10;99.90
37268;DHT22;23154;52.542;13.362;2022-09-12T06:31:42;13.10;99.90
37268;DHT22;23154;52.542;13.362;2022-09-12T06:34:10;13.10;99.90
37268;DHT22;23154;52.542;13.362;2022-09-12T06:36:39;13.10;99.90
37268;DHT22;23154;52.542;13.362;2022-09-12T06:39:08;13.40;99.90
37268;DHT22;23154;52.542;13.362;2022-09-12T06:41:34;13.40;99.90
37268;DHT22;23154;52.542;13.362;2022-09-12T06:44:00;13.50;99.90
37268;DHT22;23154;52.542;13.362;2022-09-12T06:46:26;13.60;99.90
37268;DHT22;23154;52.542;13.362;2022-09-12T06:48:54;13.60;99.90
37268;DHT22;23154;52.542;13.362;2022-09-12T06:51:20;13.70;99.90
37268;DHT22;23154;52.542;13.362;2022-09-12T06:53:46;13.70;99.90
37268;DHT22;23154;52.542;13.362;2022-09-12T06:56:17;13.80;99.90
37268;DHT22;23154;52.542;13.362;2022-09-12T06:58:47;13.90;99.90
37268;DHT22;23154;52.542;13.362;2022-09-12T07:01:24;14.00;99.90
37268;DHT22;23154;52.542;13.362;2022-09-12T07:03:55;14.00;99.90
37268;DHT22;23154;52.542;13.362;2022-09-12T07:06:23;14.10;99.90
37268;DHT22;23154;52.542;13.362;2022-09-12T07:08:54;14.20;99.90
37268;DHT22;23154;52.542;13.362;2022-09-12T07:11:21;14.30;99.90
37268;DHT22;23154;52.542;13.362;2022-09-12T07:13:50;14.40;99.90
37268;DHT22;23154;52.542;13.362;2022-09-12T07:16:16;14.70;99.90
37268;DHT22;23154;52.542;13.362;2022-09-12T07:18:42;14.70;99.90
37268;DHT22;23154;52.542;13.362;2022-09-12T07:21:13;14.80;99.90
37268;DHT22;23154;52.542;13.362;2022-09-12T07:23:39;14.80;99.90
37268;DHT22;23154;52.542;13.362;2022-09-12T07:26:07;14.80;99.90
37268;DHT22;23154;52.542;13.362;2022-09-12T07:28:33;14.90;99.90
37268;DHT22;23154;52.542;13.362;2022-09-12T07:31:07;15.00;99.90
37268;DHT22;23154;52.542;13.362;2022-09-12T07:33:33;15.10;99.90
37268;DHT22;23154;52.542;13.362;2022-09-12T07:36:07;15.10;99.90
37268;DHT22;23154;52.542;13.362;2022-09-12T07:38:38;15.20;99.90
37268;DHT22;23154;52.542;13.362;2022-09-12T07:41:12;15.30;99.90
37268;DHT22;23154;52.542;13.362;2022-09-12T07:43:38;15.40;99.90
37268;DHT22;23154;52.542;13.362;2022-09-12T07:46:03;15.60;99.90
37268;DHT22;23154;52.542;13.362;2022-09-12T07:48:29;15.70;99.90
37268;DHT22;23154;52.542;13.362;2022-09-12T07:50:59;15.90;99.90
37268;DHT22;23154;52.542;13.362;2022-09-12T07:53:29;15.90;99.90
37268;DHT22;23154;52.542;13.362;2022-09-12T07:55:55;15.90;99.90
37268;DHT22;23154;52.542;13.362;2022-09-12T07:58:22;16.00;99.90
37268;DHT22;23154;52.542;13.362;2022-09-12T08:00:48;16.00;99.90
37268;DHT22;23154;52.542;13.362;2022-09-12T08:03:13;16.10;99.90
37268;DHT22;23154;52.542;13.362;2022-09-12T08:05:39;16.30;99.90
37268;DHT22;23154;52.542;13.362;2022-09-12T08:08:05;16.40;99.90
37268;DHT22;23154;52.542;13.362;2022-09-12T08:10:30;16.60;99.90
37268;DHT22;23154;52.542;13.362;2022-09-12T08:12:57;16.70;99.90
37268;DHT22;23154;52.542;13.362;2022-09-12T08:15:23;16.90;99.90
37268;DHT22;23154;52.542;13.362;2022-09-12T08:17:49;17.10;99.90
37268;DHT22;23154;52.542;13.362;2022-09-12T08:20:15;17.30;99.90
37268;DHT22;23154;52.542;13.362;2022-09-12T08:22:41;17.30;99.90
37268;DHT22;23154;52.542;13.362;2022-09-12T08:25:08;17.30;99.90
37268;DHT22;23154;52.542;13.362;2022-09-12T08:27:33;17.30;99.90
37268;DHT22;23154;52.542;13.362;2022-09-12T08:29:59;17.30;99.90
37268;DHT22;23154;52.542;13.362;2022-09-12T08:32:24;17.40;99.90
37268;DHT22;23154;52.542;13.362;2022-09-12T08:34:50;17.50;99.90
37268;DHT22;23154;52.542;13.362;2022-09-12T08:37:15;17.60;99.90
37268;DHT22;23154;52.542;13.362;2022-09-12T08:39:41;17.70;99.90
37268;DHT22;23154;52.542;13.362;2022-09-12T08:42:09;17.60;99.90
37268;DHT22;23154;52.542;13.362;2022-09-12T08:47:37;17.50;99.90
37268;DHT22;23154;52.542;13.362;2022-09-12T08:52:59;17.60;99.90
37268;DHT22;23154;52.542;13.362;2022-09-12T08:55:39;17.80;99.90
37268;DHT22;23154;52.542;13.362;2022-09-12T09:01:02;18.10;99.90
37268;DHT22;23154;52.542;13.362;2022-09-12T09:03:53;18.20;99.90
37268;DHT22;23154;52.542;13.362;2022-09-12T09:12:22;18.10;99.90
37268;DHT22;23154;52.542;13.362;2022-09-12T09:17:57;18.10;99.90
37268;DHT22;23154;52.542;13.362;2022-09-12T09:21:08;18.30;99.90
37268;DHT22;23154;52.542;13.362;2022-09-12T09:23:35;18.50;99.90
37268;DHT22;23154;52.542;13.362;2022-09-12T09:26:14;18.60;99.90
37268;DHT22;23154;52.542;13.362;2022-09-12T09:28:46;18.80;99.90
37268;DHT22;23154;52.542;13.362;2022-09-12T09:31:16;19.00;99.90
37268;DHT22;23154;52.542;13.362;2022-09-12T09:33:42;19.10;99.90
37268;DHT22;23154;52.542;13.362;2022-09-12T09:36:21;19.20;99.90
37268;DHT22;23154;52.542;13.362;2022-09-12T09:39:04;19.30;99.90
37268;DHT22;23154;52.542;13.362;2022-09-12T09:44:15;19.00;99.90
37268;DHT22;23154;52.542;13.362;2022-09-12T09:46:41;18.80;99.90
37268;DHT22;23154;52.542;13.362;2022-09-12T09:49:11;18.50;99.90
37268;DHT22;23154;52.542;13.362;2022-09-12T09:51:40;18.50;99.90
37268;DHT22;23154;52.542;13.362;2022-09-12T09:54:38;18.50;99.90
37268;DHT22;23154;52.542;13.362;2022-09-12T10:00:28;19.30;99.90
37268;DHT22;23154;52.542;13.362;2022-09-12T10:05:43;19.60;99.90
37268;DHT22;23154;52.542;13.362;2022-09-12T10:08:09;19.70;99.90
37268;DHT22;23154;52.542;13.362;2022-09-12T10:10:57;20.00;99.90
37268;DHT22;23154;52.542;13.362;2022-09-12T10:16:04;20.20;99.90
37268;DHT22;23154;52.542;13.362;2022-09-12T10:18:41;20.00;99.90
37268;DHT22;23154;52.542;13.362;2022-09-12T10:21:29;19.80;99.90
37268;DHT22;23154;52.542;13.362;2022-09-12T10:24:29;19.70;99.90
37268;DHT22;23154;52.542;13.362;2022-09-12T10:26:57;19.70;99.90
37268;DHT22;23154;52.542;13.362;2022-09-12T10:29:32;19.70;99.90
37268;DHT22;23154;52.542;13.362;2022-09-12T10:32:02;19.80;99.90
37268;DHT22;23154;52.542;13.362;2022-09-12T10:34:43;20.00;99.90
37268;DHT22;23154;52.542;13.362;2022-09-12T10:37:30;20.20;99.90
37268;DHT22;23154;52.542;13.362;2022-09-12T10:39:58;20.00;99.90
37268;DHT22;23154;52.542;13.362;2022-09-12T10:42:58;20.10;99.90
37268;DHT22;23154;52.542;13.362;2022-09-12T10:45:31;19.90;99.90
37268;DHT22;23154;52.542;13.362;2022-09-12T10:47:59;20.20;99.90
37268;DHT22;23154;52.542;13.362;2022-09-12T10:53:22;20.80;99.90
37268;DHT22;23154;52.542;13.362;2022-09-12T11:04:23;21.30;99.90
37268;DHT22;23154;52.542;13.362;2022-09-12T11:12:28;21.40;99.90
37268;DHT22;23154;52.542;13.362;2022-09-12T11:15:06;21.40;99.90
37268;DHT22;23154;52.542;13.362;2022-09-12T11:23:23;21.10;99.90
37268;DHT22;23154;52.542;13.362;2022-09-12T11:28:59;21.40;99.90
37268;DHT22;23154;52.542;13.362;2022-09-12T11:46:35;21.30;99.90
37268;DHT22;23154;52.542;13.362;2022-09-12T11:51:59;21.40;99.90
37268;DHT22;23154;52.542;13.362;2022-09-12T11:57:15;21.30;99.90
37268;DHT22;23154;52.542;13.362;2022-09-12T12:02:12;21.40;99.90
37268;DHT22;23154;52.542;13.362;2022-09-12T12:05:04;21.20;99.90
37268;DHT22;23154;52.542;13.362;2022-09-12T12:07:39;21.20;99.90
37268;DHT22;23154;52.542;13.362;2022-09-12T12:10:19;21.30;99.90
37268;DHT22;23154;52.542;13.362;2022-09-12T12:12:46;21.30;99.90
37268;DHT22;23154;52.542;13.362;2022-09-12T12:15:14;21.60;99.90
37268;DHT22;23154;52.542;13.362;2022-09-12T12:17:40;21.50;99.90
37268;DHT22;23154;52.542;13.362;2022-09-12T12:20:15;21.50;99.90
37268;DHT22;23154;52.542;13.362;2022-09-12T12:22:51;21.50;99.90
37268;DHT22;23154;52.542;13.362;2022-09-12T12:27:55;21.50;99.90
37268;DHT22;23154;52.542;13.362;2022-09-12T12:32:59;21.60;99.90
37268;DHT22;23154;52.542;13.362;2022-09-12T12:38:00;21.90;99.90
37268;DHT22;23154;52.542;13.362;2022-09-12T12:40:28;22.00;99.90
37268;DHT22;23154;52.542;13.362;2022-09-12T12:43:00;22.20;99.70
37268;DHT22;23154;52.542;13.362;2022-09-12T12:47:58;22.30;98.20
37268;DHT22;23154;52.542;13.362;2022-09-12T12:50:26;22.30;97.80
37268;DHT22;23154;52.542;13.362;2022-09-12T12:52:58;22.10;98.40
37268;DHT22;23154;52.542;13.362;2022-09-12T12:55:37;22.00;99.00
37268;DHT22;23154;52.542;13.362;2022-09-12T12:58:20;21.70;99.60
37268;DHT22;23154;52.542;13.362;2022-09-12T13:01:08;21.70;99.60
37268;DHT22;23154;52.542;13.362;2022-09-12T13:03:35;22.00;98.70
37268;DHT22;23154;52.542;13.362;2022-09-12T13:06:04;22.00;98.90
37268;DHT22;23154;52.542;13.362;2022-09-12T13:08:37;22.20;98.70
37268;DHT22;23154;52.542;13.362;2022-09-12T13:11:09;22.20;97.90
37268;DHT22;23154;52.542;13.362;2022-09-12T13:13:57;21.90;98.30
37268;DHT22;23154;52.542;13.362;2022-09-12T13:16:29;21.60;98.70
37268;DHT22;23154;52.542;13.362;2022-09-12T13:18:56;22.00;98.90
37268;DHT22;23154;52.542;13.362;2022-09-12T13:21:22;22.50;97.80
37268;DHT22;23154;52.542;13.362;2022-09-12T13:24:12;22.60;97.90
37268;DHT22;23154;52.542;13.362;2022-09-12T13:26:43;22.40;96.90
37268;DHT22;23154;52.542;13.362;2022-09-12T13:29:15;22.20;97.10
37268;DHT22;23154;52.542;13.362;2022-09-12T13:31:42;22.40;96.80
37268;DHT22;23154;52.542;13.362;2022-09-12T13:34:12;22.50;96.30
37268;DHT22;23154;52.542;13.362;2022-09-12T13:42:24;22.30;96.30
37268;DHT22;23154;52.542;13.362;2022-09-12T13:45:08;22.30;96.10
37268;DHT22;23154;52.542;13.362;2022-09-12T13:47:59;22.30;96.10
37268;DHT22;23154;52.542;13.362;2022-09-12T13:50:25;22.60;96.30
37268;DHT22;23154;52.542;13.362;2022-09-12T13:53:16;22.50;95.80
37268;DHT22;23154;52.542;13.362;2022-09-12T13:55:48;22.50;95.60
37268;DHT22;23154;52.542;13.362;2022-09-12T13:58:26;22.50;95.60
37268;DHT22;23154;52.542;13.362;2022-09-12T14:03:39;22.10;95.90
37268;DHT22;23154;52.542;13.362;2022-09-12T14:06:24;22.30;95.90
37268;DHT22;23154;52.542;13.362;2022-09-12T14:08:50;22.40;95.80
37268;DHT22;23154;52.542;13.362;2022-09-12T14:11:27;22.50;95.30
37268;DHT22;23154;52.542;13.362;2022-09-12T14:13:53;22.60;95.50
37268;DHT22;23154;52.542;13.362;2022-09-12T14:16:21;22.50;95.40
37268;DHT22;23154;52.542;13.362;2022-09-12T14:18:48;22.50;95.70
37268;DHT22;23154;52.542;13.362;2022-09-12T14:23:54;22.50;94.90
37268;DHT22;23154;52.542;13.362;2022-09-12T14:26:22;22.30;95.60
37268;DHT22;23154;52.542;13.362;2022-09-12T14:28:49;22.30;95.40
37268;DHT22;23154;52.542;13.362;2022-09-12T14:31:27;22.10;95.70
37268;DHT22;23154;52.542;13.362;2022-09-12T14:33:55;21.90;96.40
37268;DHT22;23154;52.542;13.362;2022-09-12T14:36:30;21.60;96.00
37268;DHT22;23154;52.542;13.362;2022-09-12T14:39:03;21.70;96.40
37268;DHT22;23154;52.542;13.362;2022-09-12T14:41:36;21.60;97.00
37268;DHT22;23154;52.542;13.362;2022-09-12T14:44:05;21.60;97.40
37268;DHT22;23154;52.542;13.362;2022-09-12T14:46:34;21.80;96.50
37268;DHT22;23154;52.542;13.362;2022-09-12T14:49:07;21.80;96.20
37268;DHT22;23154;52.542;13.362;2022-09-12T14:51:38;21.70;96.30
37268;DHT22;23154;52.542;13.362;2022-09-12T14:54:04;21.60;97.00
37268;DHT22;23154;52.542;13.362;2022-09-12T14:56:42;21.60;97.30
37268;DHT22;23154;52.542;13.362;2022-09-12T14:59:37;21.50;97.00
37268;DHT22;23154;52.542;13.362;2022-09-12T15:05:13;21.30;96.00
37268;DHT22;23154;52.542;13.362;2022-09-12T15:07:52;21.30;96.50
37268;DHT22;23154;52.542;13.362;2022-09-12T15:10:27;21.30;96.50
37268;DHT22;23154;52.542;13.362;2022-09-12T15:15:36;21.00;97.50
37268;DHT22;23154;52.542;13.362;2022-09-12T15:18:02;21.00;98.10
37268;DHT22;23154;52.542;13.362;2022-09-12T15:20:30;21.10;97.60
37268;DHT22;23154;52.542;13.362;2022-09-12T15:22:55;21.00;98.10
37268;DHT22;23154;52.542;13.362;2022-09-12T15:25:21;21.00;97.80
37268;DHT22;23154;52.542;13.362;2022-09-12T15:27:47;20.90;98.20
37268;DHT22;23154;52.542;13.362;2022-09-12T15:30:14;21.00;98.40
37268;DHT22;23154;52.542;13.362;2022-09-12T15:32:41;20.80;99.00
37268;DHT22;23154;52.542;13.362;2022-09-12T15:35:15;20.80;99.10
37268;DHT22;23154;52.542;13.362;2022-09-12T15:37:42;20.80;98.80
37268;DHT22;23154;52.542;13.362;2022-09-12T15:40:09;20.80;98.60
37268;DHT22;23154;52.542;13.362;2022-09-12T15:42:35;20.80;99.00
37268;DHT22;23154;52.542;13.362;2022-09-12T15:45:01;20.80;99.10
37268;DHT22;23154;52.542;13.362;2022-09-12T15:47:26;20.90;99.10
37268;DHT22;23154;52.542;13.362;2022-09-12T15:49:52;20.80;99.90
37268;DHT22;23154;52.542;13.362;2022-09-12T15:52:17;20.70;99.60
37268;DHT22;23154;52.542;13.362;2022-09-12T15:54:43;20.50;99.90
37268;DHT22;23154;52.542;13.362;2022-09-12T15:57:08;20.50;99.90
37268;DHT22;23154;52.542;13.362;2022-09-12T15:59:35;20.30;99.90
37268;DHT22;23154;52.542;13.362;2022-09-12T16:02:00;20.30;99.90
37268;DHT22;23154;52.542;13.362;2022-09-12T16:04:28;20.20;99.90
37268;DHT22;23154;52.542;13.362;2022-09-12T16:06:54;20.20;99.90
37268;DHT22;23154;52.542;13.362;2022-09-12T16:09:21;20.10;99.90
37268;DHT22;23154;52.542;13.362;2022-09-12T16:11:47;20.00;99.90
37268;DHT22;23154;52.542;13.362;2022-09-12T16:14:14;20.00;99.90
37268;DHT22;23154;52.542;13.362;2022-09-12T16:16:40;20.00;99.90
37268;DHT22;23154;52.542;13.362;2022-09-12T16:19:06;19.90;99.90
37268;DHT22;23154;52.542;13.362;2022-09-12T16:21:34;19.90;99.90
37268;DHT22;23154;52.542;13.362;2022-09-12T16:24:00;19.90;99.90
37268;DHT22;23154;52.542;13.362;2022-09-12T16:26:25;19.90;99.90
37268;DHT22;23154;52.542;13.362;2022-09-12T16:28:55;19.80;99.90
37268;DHT22;23154;52.542;13.362;2022-09-12T16:31:21;19.80;99.90
37268;DHT22;23154;52.542;13.362;2022-09-12T16:33:48;19.80;99.90
37268;DHT22;23154;52.542;13.362;2022-09-12T16:36:16;19.70;99.90
37268;DHT22;23154;52.542;13.362;2022-09-12T16:38:47;19.60;99.90
37268;DHT22;23154;52.542;13.362;2022-09-12T16:41:14;19.50;99.90
37268;DHT22;23154;52.542;13.362;2022-09-12T16:43:40;19.40;99.90
37268;DHT22;23154;52.542;13.362;2022-09-12T16:46:10;19.40;99.90
37268;DHT22;23154;52.542;13.362;2022-09-12T16:48:36;19.40;99.90
37268;DHT22;23154;52.542;13.362;2022-09-12T16:51:04;19.30;99.90
37268;DHT22;23154;52.542;13.362;2022-09-12T16:53:32;19.20;99.90
37268;DHT22;23154;52.542;13.362;2022-09-12T16:55:58;19.10;99.90
37268;DHT22;23154;52.542;13.362;2022-09-12T16:58:24;19.10;99.90
37268;DHT22;23154;52.542;13.362;2022-09-12T17:00:59;19.00;99.90
37268;DHT22;23154;52.542;13.362;2022-09-12T17:03:24;18.90;99.90
37268;DHT22;23154;52.542;13.362;2022-09-12T17:06:01;18.90;99.90
37268;DHT22;23154;52.542;13.362;2022-09-12T17:08:28;18.80;99.90
37268;DHT22;23154;52.542;13.362;2022-09-12T17:11:01;18.70;99.90
37268;DHT22;23154;52.542;13.362;2022-09-12T17:13:27;18.60;99.90
37268;DHT22;23154;52.542;13.362;2022-09-12T17:15:52;18.50;99.90
37268;DHT22;23154;52.542;13.362;2022-09-12T17:18:18;18.50;99.90
37268;DHT22;23154;52.542;13.362;2022-09-12T17:20:43;18.40;99.90
37268;DHT22;23154;52.542;13.362;2022-09-12T17:23:09;18.30;99.90
37268;DHT22;23154;52.542;13.362;2022-09-12T17:25:35;18.30;99.90
37268;DHT22;23154;52.542;13.362;2022-09-12T17:28:00;18.20;99.90
37268;DHT22;23154;52.542;13.362;2022-09-12T17:30:32;18.10;99.90
37268;DHT22;23154;52.542;13.362;2022-09-12T17:32:59;18.00;99.90
37268;DHT22;23154;52.542;13.362;2022-09-12T17:35:25;17.90;99.90
37268;DHT22;23154;52.542;13.362;2022-09-12T17:37:51;17.70;99.90
37268;DHT22;23154;52.542;13.362;2022-09-12T17:40:16;17.60;99.90
37268;DHT22;23154;52.542;13.362;2022-09-12T17:42:42;17.60;99.90
37268;DHT22;23154;52.542;13.362;2022-09-12T17:45:09;17.50;99.90
37268;DHT22;23154;52.542;13.362;2022-09-12T17:47:39;17.50;99.90
37268;DHT22;23154;52.542;13.362;2022-09-12T17:50:05;17.40;99.90
37268;DHT22;23154;52.542;13.362;2022-09-12T17:52:31;17.30;99.90
37268;DHT22;23154;52.542;13.362;2022-09-12T17:54:57;17.20;99.90
37268;DHT22;23154;52.542;13.362;2022-09-12T17:57:22;17.20;99.90
37268;DHT22;23154;52.542;13.362;2022-09-12T17:59:48;17.20;99.90